createdAt,value
2022-11-05T00:00:20.683Z,10.63
2022-11-05T00:03:06.482Z,10.77
2022-11-05T00:05:52.227Z,10.81
2022-11-05T00:08:37.722Z,10.73
2022-11-05T00:11:04.842Z,10.62
2022-11-05T00:13:50.235Z,10.56
2022-11-05T00:16:36.101Z,10.54
2022-11-05T00:19:10.251Z,10.53
2022-11-05T00:21:57.624Z,10.61
2022-11-05T00:24:43.417Z,10.58
2022-11-05T00:27:10.869Z,10.54
2022-11-05T00:29:37.842Z,10.64
2022-11-05T00:32:05.172Z,10.54
2022-11-05T00:34:32.290Z,10.49
2022-11-05T00:36:59.280Z,10.53
2022-11-05T00:39:26.245Z,10.61
2022-11-05T00:42:11.839Z,10.62
2022-11-05T00:44:57.312Z,10.57
2022-11-05T00:47:42.643Z,10.75
2022-11-05T00:50:11.040Z,10.76
2022-11-05T00:52:57.445Z,10.84
2022-11-05T00:55:35.823Z,10.81
2022-11-05T00:58:04.083Z,10.68
2022-11-05T01:00:31.755Z,10.76
2022-11-05T01:03:07.202Z,10.73
2022-11-05T01:05:38.082Z,10.70
2022-11-05T01:08:05.223Z,10.74
2022-11-05T01:10:32.180Z,10.66
2022-11-05T01:12:59.498Z,10.70
2022-11-05T01:15:26.691Z,10.69
2022-11-05T01:17:53.803Z,10.80
2022-11-05T01:20:20.766Z,10.78
2022-11-05T01:22:48.051Z,10.91
2022-11-05T01:25:14.983Z,10.89
2022-11-05T01:27:41.943Z,10.95
2022-11-05T01:30:09.765Z,11.00
2022-11-05T01:32:37.522Z,11.05
2022-11-05T01:35:06.414Z,10.92
2022-11-05T01:37:34.943Z,10.90
2022-11-05T01:40:02.095Z,10.96
2022-11-05T01:42:32.445Z,10.97
2022-11-05T01:45:10.143Z,11.09
2022-11-05T01:47:46.103Z,11.03
2022-11-05T01:50:37.514Z,11.04
2022-11-05T01:53:17.945Z,10.89
2022-11-05T01:55:55.930Z,10.75
2022-11-05T01:58:26.622Z,10.63
2022-11-05T02:00:54.825Z,10.57
2022-11-05T02:03:21.802Z,10.52
2022-11-05T02:05:51.065Z,10.47
2022-11-05T02:08:39.143Z,10.44
2022-11-05T02:11:06.189Z,10.39
2022-11-05T02:13:33.283Z,10.36
2022-11-05T02:16:15.106Z,10.29
2022-11-05T02:18:59.663Z,10.28
2022-11-05T02:21:32.485Z,10.18
2022-11-05T02:24:16.202Z,10.11
2022-11-05T02:27:05.323Z,9.97
2022-11-05T02:29:47.567Z,9.84
2022-11-05T02:32:32.643Z,9.65
2022-11-05T02:35:40.822Z,9.66
2022-11-05T02:38:13.423Z,9.55
2022-11-05T02:40:54.765Z,9.65
2022-11-05T02:43:43.303Z,9.68
2022-11-05T02:46:31.883Z,9.70
2022-11-05T02:49:13.803Z,9.71
2022-11-05T02:52:01.053Z,9.71
2022-11-05T02:54:44.624Z,9.73
2022-11-05T02:57:11.703Z,9.79
2022-11-05T02:59:38.732Z,9.73
2022-11-05T03:02:06.648Z,9.72
2022-11-05T03:04:33.932Z,9.71
2022-11-05T03:07:01.022Z,9.73
2022-11-05T03:09:49.563Z,9.71
2022-11-05T03:12:16.602Z,9.64
2022-11-05T03:14:58.727Z,9.67
2022-11-05T03:17:28.491Z,9.73
2022-11-05T03:20:08.823Z,9.70
2022-11-05T03:22:43.103Z,9.65
2022-11-05T03:25:15.243Z,9.60
2022-11-05T03:27:47.203Z,9.67
2022-11-05T03:30:16.402Z,9.65
2022-11-05T03:32:48.002Z,9.66
2022-11-05T03:35:21.101Z,9.67
2022-11-05T03:37:51.305Z,9.65
2022-11-05T03:40:21.602Z,9.62
2022-11-05T03:42:52.391Z,9.57
2022-11-05T03:45:25.683Z,9.59
2022-11-05T03:48:08.358Z,9.60
2022-11-05T03:50:42.787Z,9.59
2022-11-05T03:53:17.282Z,9.45
2022-11-05T03:56:05.724Z,9.51
2022-11-05T03:58:33.406Z,9.45
2022-11-05T04:01:03.030Z,9.44
2022-11-05T04:03:36.525Z,9.29
2022-11-05T04:06:24.147Z,9.29
2022-11-05T04:09:10.343Z,9.38
2022-11-05T04:11:55.742Z,9.49
2022-11-05T04:14:22.809Z,9.37
2022-11-05T04:17:09.754Z,9.42
2022-11-05T04:19:57.350Z,9.46
2022-11-05T04:22:45.502Z,9.51
2022-11-05T04:25:14.069Z,9.51
2022-11-05T04:27:41.223Z,9.51
2022-11-05T04:30:18.693Z,9.53
2022-11-05T04:33:04.383Z,9.54
2022-11-05T04:35:36.025Z,9.54
2022-11-05T04:38:06.105Z,9.60
2022-11-05T04:40:33.583Z,9.61
2022-11-05T04:43:01.322Z,9.59
2022-11-05T04:45:33.204Z,9.58
2022-11-05T04:48:01.290Z,9.25
2022-11-05T04:50:29.035Z,9.35
2022-11-05T04:52:56.208Z,9.43
2022-11-05T04:55:23.464Z,9.40
2022-11-05T04:57:52.102Z,9.37
2022-11-05T05:00:20.603Z,9.40
2022-11-05T05:02:48.323Z,9.34
2022-11-05T05:05:15.563Z,9.38
2022-11-05T05:07:43.042Z,9.37
2022-11-05T05:10:11.904Z,9.31
2022-11-05T05:12:39.004Z,9.33
2022-11-05T05:15:06.901Z,9.30
2022-11-05T05:17:34.324Z,9.30
2022-11-05T05:20:19.898Z,9.24
2022-11-05T05:22:54.742Z,9.34
2022-11-05T05:25:22.702Z,9.40
2022-11-05T05:27:50.021Z,9.32
2022-11-05T05:30:17.703Z,9.39
2022-11-05T05:32:44.983Z,9.14
2022-11-05T05:35:12.340Z,9.15
2022-11-05T05:37:39.653Z,9.10
2022-11-05T05:40:07.469Z,9.19
2022-11-05T05:42:40.198Z,9.31
2022-11-05T05:45:10.419Z,9.28
2022-11-05T05:47:37.595Z,9.32
2022-11-05T05:50:05.272Z,9.32
2022-11-05T05:52:32.463Z,9.38
2022-11-05T05:54:59.742Z,9.39
2022-11-05T05:57:26.939Z,9.44
2022-11-05T05:59:54.179Z,9.52
2022-11-05T06:02:21.459Z,9.47
2022-11-05T06:04:48.736Z,9.47
2022-11-05T06:07:16.027Z,9.55
2022-11-05T06:09:43.259Z,9.60
2022-11-05T06:12:10.458Z,9.64
2022-11-05T06:14:37.741Z,9.61
2022-11-05T06:17:06.905Z,9.68
2022-11-05T06:19:34.176Z,9.71
2022-11-05T06:22:01.381Z,9.73
2022-11-05T06:24:28.624Z,9.81
2022-11-05T06:26:55.672Z,9.80
2022-11-05T06:29:22.951Z,9.88
2022-11-05T06:31:50.176Z,9.90
2022-11-05T06:34:17.343Z,9.90
2022-11-05T06:36:44.506Z,9.93
2022-11-05T06:39:12.816Z,9.91
2022-11-05T06:42:03.844Z,9.90
2022-11-05T06:44:27.095Z,10.05
2022-11-05T06:46:54.254Z,10.11
2022-11-05T06:49:24.854Z,10.15
2022-11-05T06:51:52.872Z,10.24
2022-11-05T06:54:20.216Z,10.31
2022-11-05T06:56:47.418Z,10.14
2022-11-05T06:59:14.653Z,10.22
2022-11-05T07:01:42.052Z,10.36
2022-11-05T07:04:11.854Z,10.43
2022-11-05T07:06:38.937Z,10.30
2022-11-05T07:09:06.173Z,10.44
2022-11-05T07:11:50.701Z,10.53
2022-11-05T07:14:17.899Z,10.64
2022-11-05T07:16:45.535Z,10.66
2022-11-05T07:19:12.745Z,10.73
2022-11-05T07:21:39.970Z,10.64
2022-11-05T07:24:07.776Z,10.69
2022-11-05T07:26:34.953Z,10.58
2022-11-05T07:29:02.155Z,10.63
2022-11-05T07:31:29.296Z,10.77
2022-11-05T07:33:56.495Z,10.89
2022-11-05T07:36:23.699Z,11.00
2022-11-05T07:38:52.274Z,11.09
2022-11-05T07:41:21.103Z,11.25
2022-11-05T07:43:48.534Z,11.37
2022-11-05T07:46:15.616Z,11.52
2022-11-05T07:48:42.796Z,11.65
2022-11-05T07:51:10.103Z,11.80
2022-11-05T07:53:39.803Z,11.92
2022-11-05T07:56:12.494Z,12.08
2022-11-05T07:58:39.654Z,12.24
2022-11-05T08:01:07.681Z,12.28
2022-11-05T08:03:35.208Z,12.37
2022-11-05T08:06:02.654Z,12.46
2022-11-05T08:08:29.709Z,12.65
2022-11-05T08:11:07.136Z,12.72
2022-11-05T08:13:34.661Z,12.86
2022-11-05T08:16:02.335Z,12.92
2022-11-05T08:18:34.279Z,12.95
2022-11-05T08:21:03.695Z,13.00
2022-11-05T08:23:32.218Z,13.07
2022-11-05T08:25:59.536Z,13.12
2022-11-05T08:28:26.935Z,13.16
2022-11-05T08:30:57.616Z,13.22
2022-11-05T08:33:26.097Z,13.27
2022-11-05T08:35:53.293Z,13.18
2022-11-05T08:38:20.742Z,13.27
2022-11-05T08:40:55.302Z,13.28
2022-11-05T08:43:22.822Z,13.36
2022-11-05T08:45:50.215Z,13.42
2022-11-05T08:48:19.473Z,13.38
2022-11-05T08:50:48.505Z,13.43
2022-11-05T08:53:16.219Z,13.42
2022-11-05T08:55:44.341Z,13.43
2022-11-05T08:58:15.694Z,13.40
2022-11-05T09:00:45.802Z,13.46
2022-11-05T09:03:13.338Z,13.50
2022-11-05T09:05:42.214Z,13.31
2022-11-05T09:08:12.458Z,13.34
2022-11-05T09:10:40.701Z,13.45
2022-11-05T09:13:13.093Z,13.41
2022-11-05T09:15:44.214Z,13.47
2022-11-05T09:18:14.294Z,13.43
2022-11-05T09:20:41.613Z,13.43
2022-11-05T09:23:09.654Z,13.45
2022-11-05T09:25:37.301Z,13.56
2022-11-05T09:28:16.149Z,13.58
2022-11-05T09:30:47.059Z,13.70
2022-11-05T09:33:15.063Z,13.71
2022-11-05T09:35:42.822Z,13.62
2022-11-05T09:38:10.424Z,13.85
2022-11-05T09:41:00.016Z,13.58
2022-11-05T09:43:51.021Z,13.80
2022-11-05T09:46:25.213Z,13.95
2022-11-05T09:49:05.701Z,14.08
2022-11-05T09:51:34.774Z,14.20
2022-11-05T09:54:02.680Z,14.16
2022-11-05T09:56:40.613Z,14.03
2022-11-05T09:59:19.339Z,14.15
2022-11-05T10:01:47.590Z,14.33
2022-11-05T10:04:22.695Z,14.35
2022-11-05T10:06:57.162Z,14.40
2022-11-05T10:09:32.694Z,14.44
2022-11-05T10:12:17.373Z,14.48
2022-11-05T10:14:53.573Z,14.36
2022-11-05T10:17:26.933Z,14.27
2022-11-05T10:20:16.294Z,14.43
2022-11-05T10:22:48.284Z,14.47
2022-11-05T10:25:21.838Z,14.42
2022-11-05T10:27:54.895Z,14.54
2022-11-05T10:30:22.827Z,14.48
2022-11-05T10:32:55.413Z,14.44
2022-11-05T10:35:25.014Z,14.53
2022-11-05T10:37:53.935Z,14.32
2022-11-05T10:40:44.335Z,14.38
2022-11-05T10:43:29.790Z,14.45
2022-11-05T10:46:18.415Z,14.39
2022-11-05T10:49:00.455Z,14.44
2022-11-05T10:51:28.534Z,14.40
2022-11-05T10:54:05.653Z,14.43
2022-11-05T10:56:37.494Z,14.32
2022-11-05T10:59:12.009Z,14.38
2022-11-05T11:01:39.908Z,14.33
2022-11-05T11:04:22.583Z,14.37
2022-11-05T11:06:54.301Z,14.45
2022-11-05T11:09:25.134Z,14.49
2022-11-05T11:12:14.946Z,14.44
2022-11-05T11:14:42.137Z,14.22
2022-11-05T11:17:30.223Z,14.35
2022-11-05T11:20:31.506Z,14.41
2022-11-05T11:23:15.282Z,14.28
2022-11-05T11:25:48.382Z,14.41
2022-11-05T11:28:22.615Z,14.28
2022-11-05T11:31:02.484Z,14.35
2022-11-05T11:33:31.934Z,14.42
2022-11-05T11:36:00.417Z,14.42
2022-11-05T11:38:31.857Z,14.40
2022-11-05T11:41:31.215Z,14.33
2022-11-05T11:44:05.135Z,14.39
2022-11-05T11:46:34.735Z,14.48
2022-11-05T11:49:02.144Z,14.50
2022-11-05T11:51:40.888Z,14.45
2022-11-05T11:54:24.814Z,14.46
2022-11-05T11:56:54.416Z,14.32
2022-11-05T12:00:01.863Z,14.30
2022-11-05T12:13:21.975Z,13.84
2022-11-05T12:16:03.981Z,13.67
2022-11-05T12:18:55.776Z,13.67
2022-11-05T12:21:51.312Z,13.72
2022-11-05T12:24:37.857Z,14.01
2022-11-05T12:27:39.134Z,14.17
2022-11-05T12:30:18.902Z,14.41
2022-11-05T12:33:04.904Z,14.54
2022-11-05T12:35:57.639Z,14.80
2022-11-05T12:38:55.897Z,15.09
2022-11-05T12:41:32.014Z,14.93
2022-11-05T12:44:23.454Z,15.15
2022-11-05T12:47:19.354Z,15.35
2022-11-05T12:50:04.943Z,15.51
2022-11-05T12:52:34.943Z,15.64
2022-11-05T12:55:24.294Z,15.81
2022-11-05T12:57:59.316Z,16.02
2022-11-05T13:00:29.538Z,16.37
2022-11-05T13:03:15.299Z,16.43
2022-11-05T13:05:49.239Z,16.58
2022-11-05T13:08:36.655Z,16.60
2022-11-05T13:11:20.454Z,16.66
2022-11-05T13:14:13.783Z,16.62
2022-11-05T13:16:46.774Z,16.57
2022-11-05T13:19:23.134Z,16.27
2022-11-05T13:21:57.014Z,16.34
2022-11-05T13:24:40.224Z,16.11
2022-11-05T13:27:52.225Z,15.95
2022-11-05T13:30:26.070Z,15.66
2022-11-05T13:33:09.016Z,15.50
2022-11-05T13:35:46.543Z,15.29
2022-11-05T13:38:43.621Z,15.02
2022-11-05T13:41:48.536Z,15.19
2022-11-05T13:44:36.897Z,15.02
2022-11-05T13:47:28.136Z,14.79
2022-11-05T13:50:16.736Z,14.79
2022-11-05T13:53:00.380Z,14.86
2022-11-05T13:55:54.573Z,14.72
2022-11-05T13:58:49.343Z,14.75
2022-11-05T14:01:30.676Z,14.73
2022-11-05T14:03:58.142Z,14.79
2022-11-05T14:06:36.098Z,14.69
2022-11-05T14:09:09.094Z,14.75
2022-11-05T14:11:40.936Z,14.73
2022-11-05T14:14:17.976Z,14.62
2022-11-05T14:17:14.814Z,14.68
2022-11-05T14:20:04.704Z,14.61
2022-11-05T14:22:31.871Z,14.53
2022-11-05T14:25:23.254Z,14.53
2022-11-05T14:27:53.055Z,14.51
2022-11-05T14:30:46.470Z,14.52
2022-11-05T14:33:32.373Z,14.44
2022-11-05T14:36:30.734Z,14.44
2022-11-05T14:39:25.026Z,14.42
2022-11-05T14:41:53.334Z,14.37
2022-11-05T14:44:20.585Z,14.29
2022-11-05T14:46:51.334Z,14.24
2022-11-05T14:49:26.378Z,14.15
2022-11-05T14:51:56.790Z,14.22
2022-11-05T14:54:44.061Z,14.19
2022-11-05T14:57:35.334Z,14.17
2022-11-05T15:00:02.976Z,14.13
2022-11-05T15:02:39.328Z,14.10
2022-11-05T15:05:31.259Z,14.12
2022-11-05T15:07:59.693Z,14.10
2022-11-05T15:10:35.094Z,14.04
2022-11-05T15:13:06.655Z,13.91
2022-11-05T15:15:43.973Z,13.78
2022-11-05T15:18:39.134Z,13.67
2022-11-05T15:21:10.934Z,13.60
2022-11-05T15:23:44.694Z,13.60
2022-11-05T15:26:38.536Z,13.57
2022-11-05T15:29:20.094Z,13.36
2022-11-05T15:31:47.614Z,13.28
2022-11-05T15:34:23.014Z,13.24
2022-11-05T15:36:56.823Z,13.15
2022-11-05T15:39:32.267Z,13.09
2022-11-05T15:42:04.973Z,13.19
2022-11-05T15:44:38.333Z,13.15
2022-11-05T15:47:14.654Z,12.99
2022-11-05T15:49:44.944Z,12.95
2022-11-05T15:52:14.417Z,12.93
2022-11-05T15:54:42.582Z,12.79
2022-11-05T15:57:19.624Z,12.80
2022-11-05T15:59:47.936Z,12.55
2022-11-05T16:02:32.169Z,12.56
2022-11-05T16:05:01.782Z,12.40
2022-11-05T16:07:29.375Z,12.22
2022-11-05T16:10:00.214Z,12.29
2022-11-05T16:12:34.313Z,12.22
2022-11-05T16:15:10.739Z,12.09
2022-11-05T16:17:57.902Z,12.00
2022-11-05T16:20:36.214Z,12.11
2022-11-05T16:23:07.420Z,12.25
2022-11-05T16:25:40.701Z,12.12
2022-11-05T16:28:20.424Z,12.24
2022-11-05T16:31:05.335Z,12.25
2022-11-05T16:33:46.493Z,12.28
2022-11-05T16:36:14.059Z,12.26
2022-11-05T16:38:41.296Z,12.24
2022-11-05T16:41:20.865Z,12.17
2022-11-05T16:43:54.014Z,12.14
2022-11-05T16:46:21.858Z,12.15
2022-11-05T16:48:49.136Z,12.12
2022-11-05T16:51:16.977Z,12.11
2022-11-05T16:53:44.457Z,12.06
2022-11-05T16:56:20.334Z,12.11
2022-11-05T16:58:49.135Z,11.99
2022-11-05T17:01:22.103Z,12.05
2022-11-05T17:03:51.255Z,12.11
2022-11-05T17:06:19.815Z,12.09
2022-11-05T17:08:48.334Z,12.09
2022-11-05T17:11:21.937Z,12.06
2022-11-05T17:13:49.656Z,12.06
2022-11-05T17:16:18.345Z,11.97
2022-11-05T17:18:45.661Z,12.00
2022-11-05T17:21:14.457Z,11.98
2022-11-05T17:23:41.781Z,11.94
2022-11-05T17:26:11.464Z,11.94
2022-11-05T17:28:40.786Z,11.89
2022-11-05T17:31:11.374Z,11.84
2022-11-05T17:33:38.777Z,11.78
2022-11-05T17:36:08.145Z,11.78
2022-11-05T17:38:35.743Z,11.79
2022-11-05T17:41:09.896Z,11.75
2022-11-05T17:43:37.136Z,11.73
2022-11-05T17:46:09.137Z,11.68
2022-11-05T17:48:37.627Z,11.60
2022-11-05T17:51:06.063Z,11.55
2022-11-05T17:53:33.662Z,11.54
2022-11-05T17:56:00.952Z,11.49
2022-11-05T17:58:29.270Z,11.47
2022-11-05T18:00:56.502Z,11.44
2022-11-05T18:03:23.816Z,11.47
2022-11-05T18:05:50.942Z,11.46
2022-11-05T18:08:18.136Z,11.46
2022-11-05T18:10:45.419Z,11.41
2022-11-05T18:13:13.559Z,11.42
2022-11-05T18:15:41.623Z,11.35
2022-11-05T18:18:09.658Z,11.35
2022-11-05T18:20:36.975Z,11.14
2022-11-05T18:23:04.176Z,11.10
2022-11-05T18:25:31.418Z,11.19
2022-11-05T18:27:58.698Z,11.26
2022-11-05T18:30:25.894Z,11.30
2022-11-05T18:32:53.257Z,11.30
2022-11-05T18:35:20.416Z,11.30
2022-11-05T18:37:47.657Z,11.22
2022-11-05T18:40:14.975Z,11.31
2022-11-05T18:42:42.336Z,11.31
2022-11-05T18:45:10.815Z,11.28
2022-11-05T18:47:38.542Z,11.29
2022-11-05T18:50:07.354Z,11.29
2022-11-05T18:52:34.694Z,11.26
2022-11-05T18:55:02.227Z,11.25
2022-11-05T18:57:29.534Z,11.26
2022-11-05T18:59:56.591Z,11.22
2022-11-05T19:02:23.906Z,11.19
2022-11-05T19:05:21.961Z,11.20
2022-11-05T19:07:39.154Z,11.13
2022-11-05T19:10:07.103Z,11.13
2022-11-05T19:12:34.256Z,11.04
2022-11-05T19:15:02.956Z,11.00
2022-11-05T19:17:32.934Z,10.91
2022-11-05T19:20:00.643Z,10.89
2022-11-05T19:22:28.335Z,10.87
2022-11-05T19:24:55.536Z,10.79
2022-11-05T19:27:23.575Z,10.75
2022-11-05T19:29:50.857Z,10.75
2022-11-05T19:32:18.468Z,10.64
2022-11-05T19:34:45.614Z,10.64
2022-11-05T19:37:13.096Z,10.64
2022-11-05T19:39:41.505Z,10.64
2022-11-05T19:42:10.064Z,10.54
2022-11-05T19:44:37.302Z,10.56
2022-11-05T19:47:04.574Z,10.58
2022-11-05T19:49:31.704Z,10.57
2022-11-05T19:51:59.136Z,10.54
2022-11-05T19:54:26.375Z,10.46
2022-11-05T19:56:53.658Z,10.53
2022-11-05T19:59:20.823Z,10.54
2022-11-05T20:01:48.217Z,10.48
2022-11-05T20:04:15.542Z,10.54
2022-11-05T20:06:42.895Z,10.52
2022-11-05T20:09:22.670Z,10.64
2022-11-05T20:11:52.754Z,10.74
2022-11-05T20:14:20.500Z,10.76
2022-11-05T20:16:47.825Z,10.77
2022-11-05T20:19:18.536Z,10.78
2022-11-05T20:21:45.816Z,10.72
2022-11-05T20:24:18.736Z,10.62
2022-11-05T20:26:49.232Z,10.57
2022-11-05T20:29:17.535Z,10.52
2022-11-05T20:31:45.458Z,10.58
2022-11-05T20:34:13.414Z,10.64
2022-11-05T20:36:41.657Z,10.67
2022-11-05T20:39:10.138Z,10.73
2022-11-05T20:41:37.466Z,10.74
2022-11-05T20:44:04.943Z,10.73
2022-11-05T20:46:33.313Z,10.67
2022-11-05T20:49:00.382Z,10.65
2022-11-05T20:51:27.707Z,10.65
2022-11-05T20:54:00.337Z,10.59
2022-11-05T20:56:30.984Z,10.59
2022-11-05T20:58:59.994Z,10.55
2022-11-05T21:01:30.693Z,10.49
2022-11-05T21:04:02.575Z,10.41
2022-11-05T21:06:30.748Z,10.34
2022-11-05T21:08:58.374Z,10.30
2022-11-05T21:11:25.575Z,10.25
2022-11-05T21:13:52.936Z,10.15
2022-11-05T21:16:20.820Z,10.13
2022-11-05T21:18:48.334Z,10.13
2022-11-05T21:21:20.709Z,10.10
2022-11-05T21:23:48.462Z,10.03
2022-11-05T21:26:18.068Z,10.07
2022-11-05T21:28:45.457Z,10.02
2022-11-05T21:31:12.668Z,10.00
2022-11-05T21:33:40.054Z,9.99
2022-11-05T21:36:12.595Z,9.98
2022-11-05T21:38:40.781Z,9.94
2022-11-05T21:41:08.687Z,9.92
2022-11-05T21:43:36.014Z,9.89
2022-11-05T21:46:04.656Z,9.87
2022-11-05T21:48:32.543Z,9.73
2022-11-05T21:51:18.747Z,9.76
2022-11-05T21:54:05.576Z,9.73
2022-11-05T21:56:52.700Z,9.69
2022-11-05T21:59:42.536Z,9.62
2022-11-05T22:02:12.700Z,9.62
2022-11-05T22:04:42.376Z,9.61
2022-11-05T22:07:12.178Z,9.56
2022-11-05T22:09:39.703Z,9.55
2022-11-05T22:12:07.785Z,9.53
2022-11-05T22:14:35.536Z,9.52
2022-11-05T22:17:02.657Z,9.51
2022-11-05T22:19:31.016Z,9.46
2022-11-05T22:21:57.933Z,9.40
2022-11-05T22:24:25.654Z,9.38
2022-11-05T22:26:52.774Z,9.32
2022-11-05T22:29:20.257Z,9.22
2022-11-05T22:31:47.577Z,9.10
2022-11-05T22:34:14.773Z,9.07
2022-11-05T22:36:42.099Z,9.03
2022-11-05T22:39:11.097Z,8.95
2022-11-05T22:41:38.611Z,8.82
2022-11-05T22:44:06.141Z,8.76
2022-11-05T22:46:34.020Z,8.75
2022-11-05T22:49:01.420Z,8.66
2022-11-05T22:51:31.440Z,8.58
2022-11-05T22:53:59.578Z,8.58
2022-11-05T22:56:29.934Z,8.51
2022-11-05T22:58:57.779Z,8.56
2022-11-05T23:01:25.962Z,8.51
2022-11-05T23:03:55.337Z,8.53
2022-11-05T23:06:42.382Z,8.51
2022-11-05T23:09:40.335Z,8.52
2022-11-05T23:12:18.983Z,8.51
2022-11-05T23:14:46.335Z,8.40
2022-11-05T23:17:32.175Z,8.15
2022-11-05T23:20:17.654Z,8.22
2022-11-05T23:23:03.382Z,8.16
2022-11-05T23:25:30.856Z,8.13
2022-11-05T23:27:58.138Z,7.94
2022-11-05T23:30:27.594Z,8.02
2022-11-05T23:32:56.256Z,8.09
2022-11-05T23:35:43.837Z,8.14
2022-11-05T23:38:43.415Z,8.21
2022-11-05T23:41:29.095Z,8.32
2022-11-05T23:44:14.538Z,8.38
2022-11-05T23:47:00.336Z,8.43
2022-11-05T23:49:27.616Z,8.46
2022-11-05T23:51:54.779Z,8.45
2022-11-05T23:54:22.783Z,8.49
2022-11-05T23:56:49.900Z,8.56
2022-11-05T23:59:17.136Z,8.63
